Clinton, Louisiana
Current Conditions -  °F | °C
As of 8:53 AM on Friday 19 Dec 2014 (Local Time) from KBTR Reporting Station
Overcast Overcast  
Wind Chill: 55°   Ceiling: 500
Heat Index: 55°   Visibility: 10mi
Dew Point: 52°   Wind: 14mph
Humidity: 89%   Direction: 90°E
Pressure: 30.12"   Gusts: NA
Location:  30.87°N, 91.02°W
Report Text: KBTR 191453Z 09012KT 10SM BKN005 BKN012 OVC070 13/11 A3012 RMK AO2 RAB1355E06 SLP197 P0001 60046 T01280111 56010
Loading
Personal Weather Stations






























Interactive Weather Map New forecast layout! Learn more

10-Day Weather Forecast

Advertisements
Track Severe Weather on mobile